Time;durP1;ratioP1;P1;durP2;ratioP2;P2;SDS_P1;SDS_P2;PMS_P1;PMS_P2;Temp;Humidity;BMP_temperature;BMP_pressure;BME280_temperature;BME280_humidity;BME280_pressure;Samples;Min_cycle;Max_cycle;Signal;HPM_P1;HPM_P2
2022/01/30 00:01:37;;;;;;;15.53;5.17;;;;;;;;;;4958423;28;20761;-64
2022/01/30 00:04:03;;;;;;;20.70;5.43;;;;;;;;;;4958871;28;20294;-64
2022/01/30 00:06:29;;;;;;;20.17;5.70;;;;;;;;;;4958749;28;20719;-65
2022/01/30 00:08:55;;;;;;;23.23;5.67;;;;;;;;;;4956793;28;20218;-65
2022/01/30 00:11:24;;;;;;;19.97;5.43;;;;;;;;;;4975232;28;20201;-65
2022/01/30 00:13:50;;;;;;;17.63;4.93;;;;;;;;;;4951459;28;20198;-66
2022/01/30 00:16:19;;;;;;;19.33;5.17;;;;;;;;;;4971551;28;20486;-66
2022/01/30 00:19:00;;;;;;;22.67;5.43;;;;;;;;;;4956886;28;20214;-66
2022/01/30 00:24:04;;;;;;;20.97;5.30;;;;;;;;;;4958829;28;20208;-66
2022/01/30 00:26:33;;;;;;;19.17;5.20;;;;;;;;;;4957721;28;20581;-64
2022/01/30 00:28:59;;;;;;;20.10;6.17;;;;;;;;;;4950882;28;20457;-65
2022/01/30 00:31:26;;;;;;;18.60;5.47;;;;;;;;;;4942072;28;20296;-64
2022/01/30 00:33:52;;;;;;;22.30;5.70;;;;;;;;;;4955895;28;21202;-65
2022/01/30 00:36:18;;;;;;;19.57;5.03;;;;;;;;;;4959845;28;20197;-64
2022/01/30 00:38:44;;;;;;;20.13;5.90;;;;;;;;;;4953630;28;20804;-64
2022/01/30 00:41:10;;;;;;;20.13;5.47;;;;;;;;;;4958793;28;21565;-65
2022/01/30 00:43:36;;;;;;;20.97;5.70;;;;;;;;;;4960877;28;20198;-65
2022/01/30 00:46:02;;;;;;;19.30;5.33;;;;;;;;;;4965451;28;20335;-65
2022/01/30 00:48:28;;;;;;;23.37;5.70;;;;;;;;;;4953797;28;20544;-65
2022/01/30 00:50:54;;;;;;;26.97;6.00;;;;;;;;;;4939669;28;20201;-65
2022/01/30 00:53:20;;;;;;;18.23;5.33;;;;;;;;;;4956319;28;20202;-65
2022/01/30 00:55:46;;;;;;;23.63;6.27;;;;;;;;;;4956496;28;20209;-64
2022/01/30 00:58:12;;;;;;;19.60;4.97;;;;;;;;;;4957101;28;20786;-65
2022/01/30 01:00:38;;;;;;;19.87;5.57;;;;;;;;;;4956044;28;20796;-64
2022/01/30 01:03:04;;;;;;;19.97;5.43;;;;;;;;;;4948811;28;20193;-66
2022/01/30 01:05:31;;;;;;;21.93;5.73;;;;;;;;;;4964417;28;20200;-63
2022/01/30 01:08:00;;;;;;;14.87;4.77;;;;;;;;;;4949610;28;20194;-65
2022/01/30 01:13:19;;;;;;;21.63;5.10;;;;;;;;;;4965526;28;20240;-65
2022/01/30 01:23:57;;;;;;;18.90;5.07;;;;;;;;;;4977034;28;20241;-64
2022/01/30 01:26:24;;;;;;;20.60;5.10;;;;;;;;;;4980264;28;20253;-65
2022/01/30 01:28:50;;;;;;;17.13;5.13;;;;;;;;;;4974059;28;20656;-65
2022/01/30 01:31:16;;;;;;;20.07;5.83;;;;;;;;;;4970693;28;20260;-65
2022/01/30 01:34:00;;;;;;;21.73;5.07;;;;;;;;;;4954046;28;20206;-64
2022/01/30 01:36:26;;;;;;;18.73;5.20;;;;;;;;;;4948972;28;20211;-65
2022/01/30 01:38:52;;;;;;;18.00;4.87;;;;;;;;;;4935045;28;20597;-65
2022/01/30 01:41:20;;;;;;;21.07;5.10;;;;;;;;;;4954606;28;20198;-65
2022/01/30 01:43:48;;;;;;;19.87;5.07;;;;;;;;;;4951996;28;20705;-65
2022/01/30 01:46:19;;;;;;;18.63;4.53;;;;;;;;;;4968335;28;20204;-64
2022/01/30 01:48:47;;;;;;;16.97;4.53;;;;;;;;;;4968791;28;20200;-64
2022/01/30 01:51:18;;;;;;;22.37;5.20;;;;;;;;;;4972116;28;20220;-64
2022/01/30 01:53:44;;;;;;;23.63;5.80;;;;;;;;;;4969832;28;21294;-64
2022/01/30 01:56:10;;;;;;;20.50;4.83;;;;;;;;;;4974951;28;20209;-64
2022/01/30 01:58:36;;;;;;;26.00;5.47;;;;;;;;;;4975164;28;20217;-64
2022/01/30 02:01:03;;;;;;;18.27;5.20;;;;;;;;;;4975910;28;20257;-67
2022/01/30 02:03:29;;;;;;;14.27;5.03;;;;;;;;;;4977631;28;20209;-66
2022/01/30 02:05:59;;;;;;;22.47;4.83;;;;;;;;;;4977052;28;20621;-66
2022/01/30 02:08:30;;;;;;;20.53;4.63;;;;;;;;;;4991677;28;20296;-66
2022/01/30 02:11:10;;;;;;;22.50;4.83;;;;;;;;;;4958649;28;20265;-67
2022/01/30 02:23:57;;;;;;;21.60;4.70;;;;;;;;;;4992382;28;20219;-66
2022/01/30 02:26:55;;;;;;;24.10;4.93;;;;;;;;;;4992697;28;20397;-67
2022/01/30 02:29:21;;;;;;;23.53;5.07;;;;;;;;;;4990873;28;20248;-67
2022/01/30 02:31:47;;;;;;;23.67;5.37;;;;;;;;;;4987724;28;20312;-67
2022/01/30 02:34:13;;;;;;;22.83;5.67;;;;;;;;;;4976688;28;20197;-67
2022/01/30 02:36:45;;;;;;;21.93;4.83;;;;;;;;;;4976852;28;20194;-66
2022/01/30 02:39:11;;;;;;;21.23;4.93;;;;;;;;;;4974328;28;20481;-66
2022/01/30 02:41:39;;;;;;;20.80;4.73;;;;;;;;;;4990667;28;20204;-66
2022/01/30 02:46:58;;;;;;;20.87;4.60;;;;;;;;;;4968122;28;20223;-65
2022/01/30 02:51:59;;;;;;;20.97;4.93;;;;;;;;;;4991327;28;20197;-66
2022/01/30 02:54:26;;;;;;;19.90;5.17;;;;;;;;;;4963764;28;20208;-66
2022/01/30 02:56:52;;;;;;;22.73;5.43;;;;;;;;;;4992877;28;20219;-66
2022/01/30 02:59:18;;;;;;;24.83;5.17;;;;;;;;;;4975420;28;20233;-66
2022/01/30 03:01:44;;;;;;;22.53;4.87;;;;;;;;;;4991474;28;20228;-66
2022/01/30 03:04:10;;;;;;;20.40;4.63;;;;;;;;;;4993541;28;20652;-67
2022/01/30 03:06:36;;;;;;;24.57;5.13;;;;;;;;;;4976485;28;20190;-66
2022/01/30 03:09:02;;;;;;;24.13;4.63;;;;;;;;;;4991644;28;20335;-67
2022/01/30 03:11:28;;;;;;;20.03;4.73;;;;;;;;;;4974065;28;20252;-65
2022/01/30 03:13:54;;;;;;;19.57;4.67;;;;;;;;;;4997867;28;20442;-67
2022/01/30 03:16:23;;;;;;;18.37;4.53;;;;;;;;;;4993271;28;20249;-66
2022/01/30 03:18:49;;;;;;;20.67;5.27;;;;;;;;;;4991628;28;20678;-66
2022/01/30 03:21:15;;;;;;;26.43;5.73;;;;;;;;;;4991660;28;20288;-66
2022/01/30 03:23:41;;;;;;;23.50;4.80;;;;;;;;;;4994070;28;20312;-67
2022/01/30 03:26:08;;;;;;;22.03;4.57;;;;;;;;;;4993577;28;20209;-65
2022/01/30 03:28:34;;;;;;;29.43;5.50;;;;;;;;;;4997911;28;20718;-66
2022/01/30 03:31:04;;;;;;;21.57;5.03;;;;;;;;;;4995671;28;20300;-65
2022/01/30 03:33:30;;;;;;;23.30;5.77;;;;;;;;;;4978012;28;20204;-65
2022/01/30 03:35:56;;;;;;;20.27;5.27;;;;;;;;;;4991516;28;20202;-66
2022/01/30 03:38:22;;;;;;;22.90;5.13;;;;;;;;;;4990956;28;20225;-67
2022/01/30 03:40:48;;;;;;;23.27;4.50;;;;;;;;;;4980490;28;20275;-67
2022/01/30 03:43:14;;;;;;;19.50;5.10;;;;;;;;;;4975381;28;20372;-65
2022/01/30 03:45:40;;;;;;;25.30;5.40;;;;;;;;;;4995438;28;20248;-66
2022/01/30 03:48:06;;;;;;;22.97;5.00;;;;;;;;;;4980493;28;20201;-65
2022/01/30 03:50:32;;;;;;;18.30;4.80;;;;;;;;;;4980100;28;20199;-66
2022/01/30 03:52:58;;;;;;;29.77;4.97;;;;;;;;;;4959938;28;20201;-67
2022/01/30 03:55:24;;;;;;;20.83;5.50;;;;;;;;;;4997587;28;20538;-66
2022/01/30 03:57:50;;;;;;;23.13;5.43;;;;;;;;;;4981523;28;20554;-66
2022/01/30 04:00:16;;;;;;;19.07;4.90;;;;;;;;;;4992924;28;20347;-66
2022/01/30 04:02:42;;;;;;;23.87;5.37;;;;;;;;;;4978468;28;20197;-66
2022/01/30 04:05:08;;;;;;;20.97;5.37;;;;;;;;;;4990386;28;20197;-67
2022/01/30 04:07:34;;;;;;;27.13;5.60;;;;;;;;;;4978069;28;20221;-66
2022/01/30 04:10:00;;;;;;;23.20;5.07;;;;;;;;;;4978456;28;20656;-66
2022/01/30 04:12:26;;;;;;;24.47;5.17;;;;;;;;;;4991797;28;20210;-67
2022/01/30 04:14:52;;;;;;;23.73;5.43;;;;;;;;;;4992408;28;21949;-66
2022/01/30 04:17:21;;;;;;;24.80;5.67;;;;;;;;;;4993062;28;20512;-66
2022/01/30 04:19:47;;;;;;;22.33;5.10;;;;;;;;;;4996091;28;20213;-67
2022/01/30 04:22:13;;;;;;;25.30;5.63;;;;;;;;;;4990743;28;20244;-67
2022/01/30 04:24:39;;;;;;;27.47;5.30;;;;;;;;;;4977483;28;20690;-66
2022/01/30 04:27:05;;;;;;;23.07;5.40;;;;;;;;;;4995533;28;20905;-67
2022/01/30 04:29:31;;;;;;;23.47;5.90;;;;;;;;;;4995963;28;20751;-67
2022/01/30 04:31:57;;;;;;;23.77;4.33;;;;;;;;;;4995957;28;20199;-65
2022/01/30 04:34:24;;;;;;;20.53;4.60;;;;;;;;;;4977515;28;20367;-66
2022/01/30 04:37:02;;;;;;;21.13;5.53;;;;;;;;;;4994557;28;20204;-65
2022/01/30 05:04:25;;;;;;;29.53;5.13;;;;;;;;;;4989436;28;20278;-66
2022/01/30 05:09:27;;;;;;;23.30;4.60;;;;;;;;;;4994735;28;20405;-66
2022/01/30 05:11:54;;;;;;;19.07;5.50;;;;;;;;;;4992073;28;20197;-66
2022/01/30 05:14:23;;;;;;;25.43;4.33;;;;;;;;;;4991865;28;20256;-66
2022/01/30 05:16:49;;;;;;;19.57;5.27;;;;;;;;;;4993656;28;20198;-66
2022/01/30 05:19:15;;;;;;;20.77;5.37;;;;;;;;;;4990942;28;20240;-66
2022/01/30 05:21:41;;;;;;;16.57;4.17;;;;;;;;;;4993010;28;20285;-66
2022/01/30 05:24:07;;;;;;;23.83;4.67;;;;;;;;;;4968873;28;20688;-65
2022/01/30 05:26:33;;;;;;;21.27;5.40;;;;;;;;;;4994657;28;20224;-67
2022/01/30 05:29:00;;;;;;;23.83;4.73;;;;;;;;;;4977402;28;20782;-66
2022/01/30 05:31:26;;;;;;;21.23;4.20;;;;;;;;;;4979297;28;20622;-66
2022/01/30 05:33:52;;;;;;;17.53;4.77;;;;;;;;;;4994250;28;20197;-66
2022/01/30 05:36:18;;;;;;;23.03;4.83;;;;;;;;;;5008907;28;20198;-67
2022/01/30 05:38:44;;;;;;;16.77;4.10;;;;;;;;;;4995233;28;20474;-65
2022/01/30 05:41:10;;;;;;;24.73;4.93;;;;;;;;;;4974557;28;20209;-66
2022/01/30 05:43:38;;;;;;;21.17;4.13;;;;;;;;;;4996867;28;20220;-68
2022/01/30 05:46:13;;;;;;;23.03;4.60;;;;;;;;;;4990259;28;20190;-67
2022/01/30 05:48:40;;;;;;;23.47;5.30;;;;;;;;;;4994319;28;20186;-67
2022/01/30 05:51:06;;;;;;;16.90;4.93;;;;;;;;;;4975102;28;20244;-66
2022/01/30 05:53:32;;;;;;;27.20;4.50;;;;;;;;;;4978753;28;21864;-67
2022/01/30 05:55:58;;;;;;;17.10;5.23;;;;;;;;;;4994502;28;20213;-65
2022/01/30 05:58:23;;;;;;;21.43;4.57;;;;;;;;;;4992750;28;20214;-65
2022/01/30 06:00:49;;;;;;;21.27;4.73;;;;;;;;;;4992633;28;20193;-66
2022/01/30 06:03:15;;;;;;;18.60;4.47;;;;;;;;;;4993365;28;20296;-66
2022/01/30 06:05:45;;;;;;;22.33;4.50;;;;;;;;;;4975168;28;20193;-67
2022/01/30 06:08:14;;;;;;;23.20;4.50;;;;;;;;;;4994145;28;20239;-66
2022/01/30 06:10:40;;;;;;;19.83;4.93;;;;;;;;;;4977184;28;20966;-66
2022/01/30 06:13:06;;;;;;;22.40;4.90;;;;;;;;;;4994056;28;20201;-66
2022/01/30 06:15:32;;;;;;;22.23;4.20;;;;;;;;;;4989373;28;20200;-66
2022/01/30 06:17:58;;;;;;;22.27;4.43;;;;;;;;;;4976715;28;20236;-66
2022/01/30 06:20:24;;;;;;;17.77;4.07;;;;;;;;;;4989097;28;20232;-66
2022/01/30 06:22:50;;;;;;;12.70;4.70;;;;;;;;;;4968384;28;20265;-66
2022/01/30 06:25:16;;;;;;;16.73;4.03;;;;;;;;;;4977370;28;20270;-66
2022/01/30 06:27:42;;;;;;;15.00;4.00;;;;;;;;;;4991269;28;20221;-66
2022/01/30 06:30:08;;;;;;;18.13;4.47;;;;;;;;;;4989808;28;20217;-67
2022/01/30 06:32:34;;;;;;;17.37;4.20;;;;;;;;;;4977559;28;20939;-66
2022/01/30 06:35:00;;;;;;;20.13;4.10;;;;;;;;;;4960824;28;20212;-66
2022/01/30 06:37:26;;;;;;;21.37;4.17;;;;;;;;;;4994900;28;20200;-67
2022/01/30 06:39:52;;;;;;;18.33;3.67;;;;;;;;;;4988431;28;20256;-66
2022/01/30 06:42:18;;;;;;;19.63;4.77;;;;;;;;;;4986587;28;20445;-66
2022/01/30 06:44:45;;;;;;;17.27;4.07;;;;;;;;;;4990929;28;20656;-66
2022/01/30 06:47:11;;;;;;;16.27;3.90;;;;;;;;;;4992696;28;20200;-67
2022/01/30 06:49:37;;;;;;;13.93;3.80;;;;;;;;;;4978433;28;20283;-66
2022/01/30 06:52:03;;;;;;;19.63;4.07;;;;;;;;;;4992325;28;20192;-66
2022/01/30 06:54:29;;;;;;;17.30;4.20;;;;;;;;;;4977922;28;20570;-66
2022/01/30 06:56:55;;;;;;;16.33;4.90;;;;;;;;;;4979718;28;20198;-66
2022/01/30 06:59:21;;;;;;;23.07;4.90;;;;;;;;;;4959408;28;20262;-66
2022/01/30 07:01:48;;;;;;;20.17;4.43;;;;;;;;;;4991484;28;20193;-66
2022/01/30 07:04:15;;;;;;;19.87;4.37;;;;;;;;;;4990108;28;20258;-65
2022/01/30 07:06:41;;;;;;;17.57;4.10;;;;;;;;;;4994631;28;20313;-66
2022/01/30 07:09:06;;;;;;;17.33;3.70;;;;;;;;;;4990894;28;21186;-66
2022/01/30 07:11:32;;;;;;;20.03;4.17;;;;;;;;;;4991784;28;20232;-67
2022/01/30 07:13:58;;;;;;;17.13;4.83;;;;;;;;;;4974251;28;20205;-66
2022/01/30 07:16:24;;;;;;;17.30;3.90;;;;;;;;;;4993523;28;20259;-66
2022/01/30 07:18:50;;;;;;;14.47;4.03;;;;;;;;;;4995334;28;20259;-65
2022/01/30 07:21:16;;;;;;;19.83;4.30;;;;;;;;;;4985612;28;21301;-65
2022/01/30 07:23:42;;;;;;;23.07;4.37;;;;;;;;;;4977848;28;20204;-65
2022/01/30 07:26:08;;;;;;;13.57;4.10;;;;;;;;;;4998957;28;20189;-65
2022/01/30 07:28:34;;;;;;;18.90;3.53;;;;;;;;;;4979331;28;20208;-65
2022/01/30 07:31:00;;;;;;;18.70;3.97;;;;;;;;;;4985584;28;20198;-66
2022/01/30 07:33:26;;;;;;;12.67;3.43;;;;;;;;;;4977541;28;20200;-67
2022/01/30 07:35:53;;;;;;;14.67;3.60;;;;;;;;;;4985184;28;20202;-66
2022/01/30 07:38:21;;;;;;;16.80;4.20;;;;;;;;;;4989649;28;20267;-65
2022/01/30 07:40:46;;;;;;;18.93;4.60;;;;;;;;;;4987948;28;20196;-66
2022/01/30 07:43:12;;;;;;;22.33;4.00;;;;;;;;;;4988117;28;20380;-66
2022/01/30 07:45:38;;;;;;;17.27;3.93;;;;;;;;;;4990282;28;20317;-66
2022/01/30 07:48:04;;;;;;;17.00;4.17;;;;;;;;;;4977765;28;20319;-66
2022/01/30 07:50:30;;;;;;;16.97;3.70;;;;;;;;;;4954594;28;20192;-66
2022/01/30 07:52:56;;;;;;;14.53;3.60;;;;;;;;;;4990811;28;20640;-66
2022/01/30 07:55:22;;;;;;;21.47;4.17;;;;;;;;;;4988933;28;20216;-67
2022/01/30 07:57:48;;;;;;;19.90;4.33;;;;;;;;;;4994417;28;20623;-66
2022/01/30 08:00:14;;;;;;;19.37;4.47;;;;;;;;;;4967822;28;20459;-68
2022/01/30 08:02:40;;;;;;;20.63;4.67;;;;;;;;;;4991390;28;20262;-66
2022/01/30 08:05:07;;;;;;;19.07;4.37;;;;;;;;;;4988896;28;20723;-67
2022/01/30 08:07:33;;;;;;;22.57;4.67;;;;;;;;;;4989822;28;20217;-68
2022/01/30 08:09:59;;;;;;;16.50;3.57;;;;;;;;;;4965898;28;20762;-66
2022/01/30 08:12:25;;;;;;;12.87;3.60;;;;;;;;;;4974046;28;20715;-67
2022/01/30 08:14:51;;;;;;;21.93;4.00;;;;;;;;;;4969622;28;20299;-67
2022/01/30 08:17:22;;;;;;;17.97;4.03;;;;;;;;;;4986040;28;20471;-66
2022/01/30 08:19:49;;;;;;;15.20;4.07;;;;;;;;;;4986325;28;20718;-65
2022/01/30 08:22:14;;;;;;;16.80;3.97;;;;;;;;;;4974622;28;20237;-66
2022/01/30 08:24:40;;;;;;;18.90;4.03;;;;;;;;;;4983970;28;20200;-66
2022/01/30 08:27:06;;;;;;;18.30;3.80;;;;;;;;;;4982526;28;20257;-66
2022/01/30 08:29:32;;;;;;;16.17;4.03;;;;;;;;;;4991574;28;20202;-67
2022/01/30 08:31:58;;;;;;;19.90;4.20;;;;;;;;;;4969354;28;20674;-67
2022/01/30 08:34:25;;;;;;;14.97;3.50;;;;;;;;;;4985959;28;20202;-67
2022/01/30 08:36:51;;;;;;;16.47;3.50;;;;;;;;;;4967400;28;20760;-67
2022/01/30 08:39:17;;;;;;;18.87;3.87;;;;;;;;;;4969975;28;20405;-67
2022/01/30 08:41:43;;;;;;;18.63;4.80;;;;;;;;;;4983500;28;20205;-67
2022/01/30 08:44:09;;;;;;;16.60;3.83;;;;;;;;;;4961180;28;20324;-68
2022/01/30 08:46:35;;;;;;;16.27;4.03;;;;;;;;;;4964841;28;20806;-66
2022/01/30 08:49:01;;;;;;;15.87;4.53;;;;;;;;;;4985217;28;20204;-67
2022/01/30 08:51:27;;;;;;;18.87;4.60;;;;;;;;;;4984786;28;20201;-66
2022/01/30 08:53:53;;;;;;;19.13;4.33;;;;;;;;;;4965605;28;20288;-68
2022/01/30 08:56:21;;;;;;;15.77;4.63;;;;;;;;;;4982648;28;20202;-68
2022/01/30 08:58:47;;;;;;;14.03;3.57;;;;;;;;;;4966275;28;20223;-66
2022/01/30 09:01:13;;;;;;;18.03;4.43;;;;;;;;;;4990392;28;20190;-68
2022/01/30 09:03:39;;;;;;;12.87;3.63;;;;;;;;;;4965965;28;20221;-67
2022/01/30 09:06:05;;;;;;;16.93;4.00;;;;;;;;;;4977139;28;20939;-67
2022/01/30 09:08:31;;;;;;;15.90;3.67;;;;;;;;;;4969753;28;20205;-66
2022/01/30 09:10:57;;;;;;;18.17;3.87;;;;;;;;;;4987050;28;20202;-67
2022/01/30 09:13:23;;;;;;;17.83;3.60;;;;;;;;;;4968687;28;20189;-67
2022/01/30 09:15:56;;;;;;;17.37;4.07;;;;;;;;;;4971639;28;20277;-66
2022/01/30 09:18:22;;;;;;;19.97;4.70;;;;;;;;;;4983069;28;20859;-68
2022/01/30 09:20:48;;;;;;;23.40;4.47;;;;;;;;;;4977696;28;20218;-68
2022/01/30 09:23:14;;;;;;;17.43;4.03;;;;;;;;;;4989437;28;20229;-68
2022/01/30 09:25:41;;;;;;;13.13;3.87;;;;;;;;;;4989833;28;20218;-68
2022/01/30 09:28:07;;;;;;;19.77;4.67;;;;;;;;;;4992205;28;20212;-68
2022/01/30 09:30:33;;;;;;;24.30;4.00;;;;;;;;;;4991035;28;20197;-67
2022/01/30 09:32:59;;;;;;;17.73;3.90;;;;;;;;;;4986118;28;20198;-68
2022/01/30 09:35:25;;;;;;;26.80;4.93;;;;;;;;;;4975147;28;20565;-68
2022/01/30 09:37:51;;;;;;;21.17;5.00;;;;;;;;;;4987599;28;20206;-65
2022/01/30 09:40:17;;;;;;;18.07;5.20;;;;;;;;;;4959039;28;20890;-65
2022/01/30 09:42:44;;;;;;;14.90;4.20;;;;;;;;;;4984113;28;20189;-66
2022/01/30 09:45:10;;;;;;;17.93;4.33;;;;;;;;;;4987138;28;20193;-66
2022/01/30 09:47:36;;;;;;;13.70;4.10;;;;;;;;;;4952745;28;20457;-66
2022/01/30 09:50:02;;;;;;;21.90;4.37;;;;;;;;;;4963753;28;20677;-66
2022/01/30 09:52:28;;;;;;;20.47;4.60;;;;;;;;;;4971909;28;20555;-66
2022/01/30 09:54:54;;;;;;;19.33;4.13;;;;;;;;;;4988061;28;20805;-66
2022/01/30 09:57:20;;;;;;;13.57;3.87;;;;;;;;;;4981792;28;20194;-66
2022/01/30 09:59:47;;;;;;;18.33;4.67;;;;;;;;;;4979199;28;20219;-64
2022/01/30 10:02:14;;;;;;;18.40;5.23;;;;;;;;;;4992685;28;20185;-65
2022/01/30 10:04:40;;;;;;;19.67;4.27;;;;;;;;;;4991213;28;20196;-65
2022/01/30 10:07:16;;;;;;;15.70;4.17;;;;;;;;;;4984460;28;20201;-65
2022/01/30 10:09:46;;;;;;;17.17;4.57;;;;;;;;;;4968146;28;20691;-65
2022/01/30 10:12:16;;;;;;;15.87;4.20;;;;;;;;;;4946892;28;20193;-66
2022/01/30 10:15:01;;;;;;;18.90;4.97;;;;;;;;;;4945758;28;20260;-66
2022/01/30 10:17:37;;;;;;;16.57;4.60;;;;;;;;;;4967352;28;20281;-66
2022/01/30 10:20:13;;;;;;;15.40;4.90;;;;;;;;;;4951823;28;20240;-67
2022/01/30 10:22:49;;;;;;;21.03;5.00;;;;;;;;;;4947466;28;20482;-66
2022/01/30 10:25:24;;;;;;;14.97;4.30;;;;;;;;;;4969960;28;20181;-65
2022/01/30 10:28:04;;;;;;;21.63;5.10;;;;;;;;;;4964267;28;20204;-66
2022/01/30 10:30:30;;;;;;;21.03;5.40;;;;;;;;;;4960220;28;20186;-66
2022/01/30 10:32:56;;;;;;;16.77;4.60;;;;;;;;;;4950287;28;20759;-65
2022/01/30 10:35:22;;;;;;;19.33;6.00;;;;;;;;;;4946024;28;20652;-66
2022/01/30 10:37:48;;;;;;;19.20;5.27;;;;;;;;;;4965602;28;20206;-66
2022/01/30 10:40:23;;;;;;;58.20;13.50;;;;;;;;;;4942281;28;21575;-66
2022/01/30 10:42:49;;;;;;;47.57;11.37;;;;;;;;;;4952895;28;20608;-64
2022/01/30 10:45:25;;;;;;;44.70;11.47;;;;;;;;;;4951996;28;20205;-65
2022/01/30 10:47:51;;;;;;;34.80;9.40;;;;;;;;;;4950548;28;20178;-66
2022/01/30 10:50:20;;;;;;;34.43;9.07;;;;;;;;;;4966446;28;20440;-65
2022/01/30 10:52:50;;;;;;;30.90;7.63;;;;;;;;;;4957849;28;20801;-64
2022/01/30 10:55:16;;;;;;;25.33;6.83;;;;;;;;;;4957029;28;20194;-65
2022/01/30 10:57:42;;;;;;;27.37;6.43;;;;;;;;;;4968697;28;20844;-65
2022/01/30 11:00:08;;;;;;;22.87;6.23;;;;;;;;;;4941609;28;20248;-66
2022/01/30 11:02:38;;;;;;;23.10;5.47;;;;;;;;;;4976114;28;20198;-66
2022/01/30 11:05:07;;;;;;;22.03;5.57;;;;;;;;;;4971396;28;20194;-65
2022/01/30 11:07:35;;;;;;;18.77;4.67;;;;;;;;;;4949630;28;20194;-66
2022/01/30 11:10:07;;;;;;;19.67;5.17;;;;;;;;;;4951741;28;20198;-66
2022/01/30 11:12:45;;;;;;;23.63;5.13;;;;;;;;;;4974618;28;20229;-65
2022/01/30 11:15:35;;;;;;;15.13;4.67;;;;;;;;;;4958003;28;20283;-66
2022/01/30 11:18:04;;;;;;;16.83;5.03;;;;;;;;;;4974119;28;20272;-66
2022/01/30 11:20:34;;;;;;;17.10;5.23;;;;;;;;;;4952921;28;20275;-66
2022/01/30 11:23:01;;;;;;;14.67;5.13;;;;;;;;;;4973516;28;20620;-65
2022/01/30 11:25:27;;;;;;;16.20;4.80;;;;;;;;;;4964857;28;20189;-66
2022/01/30 11:27:53;;;;;;;17.40;4.80;;;;;;;;;;4955821;28;20185;-66
2022/01/30 11:30:20;;;;;;;15.07;5.30;;;;;;;;;;4953952;28;20830;-66
2022/01/30 11:32:46;;;;;;;18.87;4.97;;;;;;;;;;4971698;28;20224;-66
2022/01/30 11:35:12;;;;;;;18.53;5.23;;;;;;;;;;4957898;28;20549;-66
2022/01/30 11:37:38;;;;;;;16.10;5.00;;;;;;;;;;4974134;28;20206;-66
2022/01/30 11:40:11;;;;;;;15.67;4.83;;;;;;;;;;4975014;28;20224;-67
2022/01/30 11:42:41;;;;;;;15.83;5.33;;;;;;;;;;4974295;28;20225;-66
2022/01/30 11:45:07;;;;;;;23.23;6.00;;;;;;;;;;4980685;28;20198;-66
2022/01/30 11:47:46;;;;;;;19.33;4.83;;;;;;;;;;4982235;28;20596;-65
2022/01/30 11:50:12;;;;;;;19.77;5.27;;;;;;;;;;4969205;28;20291;-67
2022/01/30 11:52:55;;;;;;;20.43;5.47;;;;;;;;;;4954831;28;20253;-66
2022/01/30 11:55:40;;;;;;;17.13;5.40;;;;;;;;;;4978562;28;20213;-65
2022/01/30 11:58:09;;;;;;;18.07;5.80;;;;;;;;;;4978405;28;20193;-65
2022/01/30 12:00:37;;;;;;;15.43;5.20;;;;;;;;;;4980289;28;20243;-67
2022/01/30 12:03:21;;;;;;;19.77;5.60;;;;;;;;;;4969529;28;20194;-65
2022/01/30 12:05:47;;;;;;;20.00;5.70;;;;;;;;;;4975703;28;20268;-66
2022/01/30 12:08:32;;;;;;;17.00;5.13;;;;;;;;;;4984826;28;20217;-66
2022/01/30 12:10:58;;;;;;;19.50;5.60;;;;;;;;;;4982405;28;20628;-66
2022/01/30 12:13:43;;;;;;;16.60;5.00;;;;;;;;;;4993042;28;20205;-65
2022/01/30 12:16:29;;;;;;;16.23;4.87;;;;;;;;;;4986640;28;20251;-66
2022/01/30 12:18:58;;;;;;;22.17;5.13;;;;;;;;;;4984122;28;20255;-66
2022/01/30 12:21:27;;;;;;;17.07;5.13;;;;;;;;;;4984896;28;20272;-66
2022/01/30 12:23:53;;;;;;;19.77;5.10;;;;;;;;;;4981812;28;20217;-65
2022/01/30 12:26:20;;;;;;;20.00;5.27;;;;;;;;;;4985254;28;20586;-64
2022/01/30 12:28:56;;;;;;;18.87;5.20;;;;;;;;;;4982544;28;20253;-66
2022/01/30 12:31:32;;;;;;;16.03;4.70;;;;;;;;;;4970203;28;20232;-66
2022/01/30 12:33:58;;;;;;;17.73;5.00;;;;;;;;;;4982944;28;20205;-67
2022/01/30 12:36:27;;;;;;;19.90;5.00;;;;;;;;;;4985230;28;20758;-66
2022/01/30 12:38:54;;;;;;;21.17;5.10;;;;;;;;;;4968435;28;20236;-66
2022/01/30 12:41:21;;;;;;;16.07;5.47;;;;;;;;;;4985435;28;20802;-66
2022/01/30 12:43:51;;;;;;;18.20;5.13;;;;;;;;;;4983937;28;20548;-67
2022/01/30 12:46:17;;;;;;;17.97;4.80;;;;;;;;;;4965362;28;20587;-66
2022/01/30 12:48:43;;;;;;;18.23;5.43;;;;;;;;;;4984812;28;21823;-66
2022/01/30 12:51:14;;;;;;;20.73;5.50;;;;;;;;;;4966959;28;20240;-67
2022/01/30 12:53:41;;;;;;;17.43;5.07;;;;;;;;;;4979603;28;20198;-65
2022/01/30 12:56:07;;;;;;;18.07;5.30;;;;;;;;;;4965737;28;20207;-65
2022/01/30 12:58:37;;;;;;;16.80;4.87;;;;;;;;;;4985331;28;20200;-67
2022/01/30 13:01:09;;;;;;;14.80;4.77;;;;;;;;;;4954375;28;20216;-67
2022/01/30 13:03:35;;;;;;;15.07;5.10;;;;;;;;;;4979963;28;20193;-66
2022/01/30 13:06:01;;;;;;;22.57;5.57;;;;;;;;;;4966425;28;20209;-66
2022/01/30 13:08:46;;;;;;;18.03;4.67;;;;;;;;;;4969837;28;20197;-68
2022/01/30 13:11:19;;;;;;;19.23;5.10;;;;;;;;;;4963347;28;20627;-67
2022/01/30 13:13:55;;;;;;;23.83;5.90;;;;;;;;;;4969951;28;20280;-67
2022/01/30 13:16:25;;;;;;;19.67;4.90;;;;;;;;;;4966869;28;20197;-66
2022/01/30 13:18:51;;;;;;;16.63;5.53;;;;;;;;;;4966858;28;20217;-67
2022/01/30 13:21:24;;;;;;;22.87;5.47;;;;;;;;;;4940862;28;20773;-67
2022/01/30 13:23:50;;;;;;;19.70;5.30;;;;;;;;;;4962805;28;20205;-65
2022/01/30 13:26:29;;;;;;;21.43;5.17;;;;;;;;;;4964022;28;20201;-66
2022/01/30 13:28:55;;;;;;;18.33;5.47;;;;;;;;;;4964634;28;20608;-66
2022/01/30 13:31:21;;;;;;;16.70;5.33;;;;;;;;;;4981916;28;20198;-66
2022/01/30 13:34:05;;;;;;;15.03;4.80;;;;;;;;;;4973856;28;20259;-67
2022/01/30 13:36:31;;;;;;;18.97;4.90;;;;;;;;;;4964323;28;20197;-66
2022/01/30 13:38:57;;;;;;;15.57;5.30;;;;;;;;;;4983943;28;20670;-66
2022/01/30 13:41:26;;;;;;;14.37;5.03;;;;;;;;;;4966052;28;20568;-65
2022/01/30 13:43:57;;;;;;;13.60;4.60;;;;;;;;;;4978908;28;20189;-66
2022/01/30 13:49:10;;;;;;;15.37;4.60;;;;;;;;;;4982253;28;20576;-66
2022/01/30 13:51:36;;;;;;;16.87;4.43;;;;;;;;;;4970210;28;20202;-66
2022/01/30 13:54:09;;;;;;;16.37;4.53;;;;;;;;;;4967786;28;20714;-66
2022/01/30 13:56:35;;;;;;;19.97;4.80;;;;;;;;;;4968594;28;20852;-66
2022/01/30 13:59:01;;;;;;;19.13;4.83;;;;;;;;;;4969320;28;20260;-66
2022/01/30 14:01:30;;;;;;;22.17;4.77;;;;;;;;;;4956072;28;20186;-65
2022/01/30 14:04:11;;;;;;;19.80;5.23;;;;;;;;;;4969629;28;20540;-67
2022/01/30 14:06:37;;;;;;;15.87;5.40;;;;;;;;;;4963324;28;20193;-66
2022/01/30 14:09:03;;;;;;;15.97;5.20;;;;;;;;;;4964573;28;20679;-67
2022/01/30 14:11:34;;;;;;;19.23;5.67;;;;;;;;;;4987230;28;20251;-66
2022/01/30 14:14:08;;;;;;;16.23;5.17;;;;;;;;;;4996250;28;20216;-66
2022/01/30 14:16:34;;;;;;;14.70;5.93;;;;;;;;;;4992409;28;20197;-67
2022/01/30 14:19:00;;;;;;;15.23;5.50;;;;;;;;;;4981475;28;20210;-66
2022/01/30 14:21:28;;;;;;;14.03;5.33;;;;;;;;;;4991097;28;20256;-66
2022/01/30 14:23:54;;;;;;;19.63;5.93;;;;;;;;;;4981972;28;21324;-66
2022/01/30 14:26:21;;;;;;;14.60;5.73;;;;;;;;;;4975018;28;20193;-66
2022/01/30 14:28:47;;;;;;;14.70;5.63;;;;;;;;;;4982269;28;20185;-66
2022/01/30 14:31:17;;;;;;;19.33;5.37;;;;;;;;;;4985300;28;20213;-66
2022/01/30 14:33:43;;;;;;;16.87;5.30;;;;;;;;;;4984352;28;20198;-67
2022/01/30 14:36:09;;;;;;;12.97;4.90;;;;;;;;;;4982955;28;20198;-67
2022/01/30 14:38:41;;;;;;;17.47;5.00;;;;;;;;;;4951644;28;20201;-67
2022/01/30 14:41:07;;;;;;;22.43;5.17;;;;;;;;;;4966206;28;20193;-66
2022/01/30 14:43:33;;;;;;;19.47;5.13;;;;;;;;;;4966648;28;20202;-66
2022/01/30 14:45:59;;;;;;;19.00;5.67;;;;;;;;;;4951207;28;20193;-66
2022/01/30 14:48:25;;;;;;;22.23;5.80;;;;;;;;;;4944245;28;20191;-65
2022/01/30 14:50:51;;;;;;;23.37;5.13;;;;;;;;;;4971578;28;20189;-65
2022/01/30 14:53:17;;;;;;;26.17;6.47;;;;;;;;;;4969556;28;20205;-65
2022/01/30 14:55:43;;;;;;;20.30;5.90;;;;;;;;;;4979463;28;20189;-65
2022/01/30 14:58:12;;;;;;;26.70;7.00;;;;;;;;;;4972834;28;20317;-65
2022/01/30 15:00:38;;;;;;;26.60;7.07;;;;;;;;;;4962380;28;20226;-65
2022/01/30 15:03:04;;;;;;;32.03;8.73;;;;;;;;;;4968535;28;20201;-65
2022/01/30 15:05:30;;;;;;;26.03;7.30;;;;;;;;;;4979492;28;21402;-65
2022/01/30 15:07:56;;;;;;;21.63;5.67;;;;;;;;;;4979292;28;20780;-64
2022/01/30 15:10:25;;;;;;;27.10;5.67;;;;;;;;;;4975347;28;20232;-65
2022/01/30 15:12:51;;;;;;;18.17;5.03;;;;;;;;;;4980409;28;20320;-64
2022/01/30 15:15:17;;;;;;;22.40;5.13;;;;;;;;;;4957913;28;21201;-66
2022/01/30 15:17:43;;;;;;;21.70;5.10;;;;;;;;;;4965589;28;20232;-65
2022/01/30 15:20:10;;;;;;;21.93;5.10;;;;;;;;;;4959814;28;20225;-66
2022/01/30 15:22:36;;;;;;;22.83;5.13;;;;;;;;;;4983467;28;20696;-65
2022/01/30 15:25:02;;;;;;;14.97;4.40;;;;;;;;;;4975730;28;20786;-67
2022/01/30 15:27:28;;;;;;;24.30;5.90;;;;;;;;;;4953879;28;20208;-68
2022/01/30 15:29:54;;;;;;;22.57;5.47;;;;;;;;;;4968616;28;20206;-69
2022/01/30 15:32:20;;;;;;;15.30;5.03;;;;;;;;;;4956240;28;22817;-68
2022/01/30 15:34:46;;;;;;;17.27;4.80;;;;;;;;;;4978946;28;20817;-66